UKWW/VIN METAR and TAF weather

Enter ICAO airport designator
Station Type Date Time Source
UKWW METAR 2019/08/18 09:30 UTC NOAA

UKWW 180930Z 30004MPS 250V330 CAVOK 23/08 Q1016 R31/0///65 NOSIG


Station Type Date Time Source
UKWW Decoded METAR 2019/08/18 09:30 UTC NOAA

Station name not available
Aug 18, 2019 - 05:30 AM EDT / 2019.08.18 0930 UTC
Wind: from the WNW (300 degrees) at 9 MPH (8 KT) (direction variable):0
Visibility: greater than 7 mile(s):0
Temperature: 73 F (23 C)
Dew Point: 46 F (8 C)
Relative Humidity: 38%
Pressure (altimeter): 30.00 in. Hg (1016 hPa)
ob: UKWW 180930Z 30004MPS 250V330 CAVOK 23/08 Q1016 R31/0///65 NOSIG
cycle: 9

Station Type Date Time Source
UKWW TAF 2010/03/21 10:45 UTC NOAA

TAF UKWW 211045Z 2112/2212 24005G10MPS 9999 SCT020 BKN070
TEMPO 2115/2207 1400 -SHRA BR SCT004 BKN007CB
FM220700 34007G12MPS 9999 SCT015 BKN100 TX11/2112Z TN01/2204Z

Example: see airport list